createdAt,value
2019-02-24T00:01:24.942Z,15.20
2019-02-24T00:03:54.754Z,12.93
2019-02-24T00:06:23.638Z,14.50
2019-02-24T00:08:52.128Z,14.13
2019-02-24T00:11:20.764Z,13.33
2019-02-24T00:13:49.406Z,12.63
2019-02-24T00:16:18.044Z,13.90
2019-02-24T00:18:46.608Z,13.93
2019-02-24T00:21:15.246Z,14.73
2019-02-24T00:23:43.802Z,13.80
2019-02-24T00:26:12.583Z,13.90
2019-02-24T00:28:41.154Z,13.00
2019-02-24T00:31:09.809Z,13.67
2019-02-24T00:33:38.372Z,13.27
2019-02-24T00:36:07.003Z,13.50
2019-02-24T00:38:35.562Z,13.90
2019-02-24T00:41:04.474Z,13.00
2019-02-24T00:43:33.119Z,13.23
2019-02-24T00:46:01.687Z,13.17
2019-02-24T00:48:30.390Z,12.73
2019-02-24T00:50:59.042Z,12.97
2019-02-24T00:53:27.590Z,12.50
2019-02-24T00:55:56.328Z,14.23
2019-02-24T00:58:24.888Z,12.93
2019-02-24T01:00:53.538Z,12.87
2019-02-24T01:03:22.160Z,13.77
2019-02-24T01:05:50.739Z,11.87
2019-02-24T01:08:19.379Z,13.23
2019-02-24T01:10:47.921Z,12.43
2019-02-24T01:13:17.578Z,12.07
2019-02-24T01:15:46.128Z,13.40
2019-02-24T01:18:15.082Z,13.07
2019-02-24T01:20:43.630Z,13.43
2019-02-24T01:23:12.383Z,14.50
2019-02-24T01:25:40.956Z,12.73
2019-02-24T01:28:09.520Z,14.93
2019-02-24T01:30:38.697Z,12.70
2019-02-24T01:33:07.252Z,13.53
2019-02-24T01:35:36.460Z,11.07
2019-02-24T01:38:05.014Z,12.80
2019-02-24T01:40:33.654Z,12.23
2019-02-24T01:43:02.210Z,12.17
2019-02-24T01:45:31.115Z,10.83
2019-02-24T01:47:59.660Z,11.70
2019-02-24T01:50:28.320Z,12.43
2019-02-24T01:52:56.884Z,11.60
2019-02-24T01:55:25.814Z,13.07
2019-02-24T01:57:54.390Z,11.77
2019-02-24T02:00:23.012Z,11.70
2019-02-24T02:02:51.572Z,12.13
2019-02-24T02:05:20.206Z,12.00
2019-02-24T02:07:48.773Z,11.30
2019-02-24T02:10:17.410Z,12.80
2019-02-24T02:12:45.972Z,11.33
2019-02-24T02:15:14.860Z,11.43
2019-02-24T02:17:43.490Z,12.50
2019-02-24T02:20:12.202Z,11.33
2019-02-24T02:22:40.764Z,11.47
2019-02-24T02:25:09.740Z,10.97
2019-02-24T02:27:38.372Z,10.30
2019-02-24T02:30:09.575Z,11.33
2019-02-24T02:32:38.842Z,11.13
2019-02-24T02:35:08.562Z,11.50
2019-02-24T02:37:37.111Z,11.30
2019-02-24T02:40:07.420Z,11.60
2019-02-24T02:42:36.180Z,12.97
2019-02-24T02:45:07.136Z,9.67
2019-02-24T02:47:35.810Z,10.83
2019-02-24T02:50:06.650Z,11.00
2019-02-24T02:52:35.240Z,11.80
2019-02-24T02:55:04.810Z,12.17
2019-02-24T02:57:33.447Z,10.93
2019-02-24T03:00:02.082Z,10.80
2019-02-24T03:02:31.086Z,9.60
2019-02-24T03:04:59.647Z,11.20
2019-02-24T03:07:29.928Z,11.00
2019-02-24T03:09:58.487Z,11.50
2019-02-24T03:12:27.125Z,11.00
2019-02-24T03:14:55.684Z,11.33
2019-02-24T03:17:25.038Z,12.33
2019-02-24T03:19:53.609Z,12.03
2019-02-24T03:22:22.243Z,11.03
2019-02-24T03:24:50.824Z,11.83
2019-02-24T03:27:19.885Z,10.70
2019-02-24T03:29:48.436Z,11.97
2019-02-24T03:32:17.079Z,10.83
2019-02-24T03:34:45.699Z,10.97
2019-02-24T03:37:14.461Z,10.80
2019-02-24T03:39:43.016Z,11.07
2019-02-24T03:42:12.598Z,11.10
2019-02-24T03:44:41.201Z,11.57
2019-02-24T03:47:09.893Z,12.10
2019-02-24T03:49:38.446Z,10.90
2019-02-24T03:52:07.175Z,9.80
2019-02-24T03:54:35.795Z,11.60
2019-02-24T03:57:05.026Z,10.90
2019-02-24T03:59:33.816Z,11.40
2019-02-24T04:02:02.440Z,10.40
2019-02-24T04:04:31.154Z,10.43
2019-02-24T04:06:59.715Z,9.67
2019-02-24T04:09:28.348Z,9.80
2019-02-24T04:11:56.903Z,9.80
2019-02-24T04:14:25.826Z,9.20
2019-02-24T04:16:54.388Z,9.97
2019-02-24T04:19:23.040Z,9.70
2019-02-24T04:21:51.916Z,10.93
2019-02-24T04:24:20.971Z,9.90
2019-02-24T04:26:49.546Z,11.40
2019-02-24T04:29:24.595Z,10.03
2019-02-24T04:31:48.408Z,11.00
2019-02-24T04:34:17.376Z,9.63
2019-02-24T04:36:45.936Z,10.47
2019-02-24T04:39:14.743Z,11.40
2019-02-24T04:41:43.297Z,11.20
2019-02-24T04:44:12.115Z,10.30
2019-02-24T04:46:40.796Z,9.20
2019-02-24T04:49:09.353Z,10.13
2019-02-24T04:51:39.396Z,9.50
2019-02-24T04:54:07.958Z,10.60
2019-02-24T04:56:36.770Z,10.30
2019-02-24T04:59:05.332Z,11.20
2019-02-24T05:01:34.140Z,10.07
2019-02-24T05:04:02.701Z,10.50
2019-02-24T05:06:31.535Z,10.17
2019-02-24T05:09:00.094Z,9.80
2019-02-24T05:11:28.890Z,10.03
2019-02-24T05:13:57.440Z,9.40
2019-02-24T05:16:27.507Z,9.87
2019-02-24T05:18:56.582Z,10.90
2019-02-24T05:21:25.138Z,10.10
2019-02-24T05:23:53.948Z,9.77
2019-02-24T05:26:22.611Z,9.13
2019-02-24T05:28:51.242Z,9.50
2019-02-24T05:31:19.815Z,10.20
2019-02-24T05:33:48.445Z,9.40
2019-02-24T05:36:17.006Z,10.60
2019-02-24T05:38:45.641Z,9.60
2019-02-24T05:41:14.257Z,8.43
2019-02-24T05:43:43.237Z,9.33
2019-02-24T05:46:11.802Z,8.00
2019-02-24T05:48:40.546Z,8.80
2019-02-24T05:51:09.095Z,8.93
2019-02-24T05:53:37.639Z,9.33
2019-02-24T05:56:06.452Z,8.77
2019-02-24T05:58:35.083Z,9.40
2019-02-24T06:01:03.644Z,9.80
2019-02-24T06:03:32.214Z,9.27
2019-02-24T06:06:03.860Z,8.87
2019-02-24T06:08:32.682Z,7.57
2019-02-24T06:11:01.628Z,9.70
2019-02-24T06:13:30.263Z,9.20
2019-02-24T06:15:58.814Z,9.27
2019-02-24T06:18:27.491Z,10.40
2019-02-24T06:20:56.066Z,10.03
2019-02-24T06:23:24.619Z,9.03
2019-02-24T06:25:53.755Z,9.60
2019-02-24T06:28:22.319Z,11.80
2019-02-24T06:30:50.961Z,14.47
2019-02-24T06:33:19.522Z,20.80
2019-02-24T06:35:48.932Z,19.77
2019-02-24T06:38:17.492Z,13.87
2019-02-24T06:40:46.484Z,17.77
2019-02-24T06:43:15.041Z,16.00
2019-02-24T06:45:43.700Z,16.97
2019-02-24T06:48:12.348Z,21.40
2019-02-24T06:50:59.304Z,18.50
2019-02-24T06:53:28.354Z,14.10
2019-02-24T06:55:56.899Z,12.70
2019-02-24T06:58:25.533Z,15.73
2019-02-24T07:00:54.402Z,13.93
2019-02-24T07:03:22.966Z,12.77
2019-02-24T07:05:51.780Z,12.00
2019-02-24T07:08:20.327Z,9.87
2019-02-24T07:10:49.065Z,10.27
2019-02-24T07:13:18.064Z,9.77
2019-02-24T07:15:46.702Z,13.97
2019-02-24T07:18:15.260Z,9.40
2019-02-24T07:20:44.225Z,9.00
2019-02-24T07:23:13.092Z,9.67
2019-02-24T07:25:41.720Z,8.90
2019-02-24T07:28:10.349Z,10.33
2019-02-24T07:30:38.986Z,10.13
2019-02-24T07:33:07.558Z,10.53
2019-02-24T07:35:39.287Z,11.20
2019-02-24T07:38:07.857Z,10.73
2019-02-24T07:40:36.496Z,10.80
2019-02-24T07:43:05.063Z,10.30
2019-02-24T07:45:33.847Z,10.80
2019-02-24T07:48:02.471Z,12.50
2019-02-24T07:50:31.128Z,11.30
2019-02-24T07:52:59.699Z,13.10
2019-02-24T07:55:28.471Z,12.10
2019-02-24T07:57:57.031Z,12.83
2019-02-24T08:00:31.911Z,10.87
2019-02-24T08:02:56.377Z,12.30
2019-02-24T08:05:25.428Z,10.40
2019-02-24T08:07:54.760Z,11.53
2019-02-24T08:10:23.959Z,11.83
2019-02-24T08:12:52.539Z,11.37
2019-02-24T08:15:21.100Z,10.83
2019-02-24T08:17:49.800Z,11.43
2019-02-24T08:20:18.556Z,11.23
2019-02-24T08:22:47.115Z,9.90
2019-02-24T08:25:15.676Z,11.30
2019-02-24T08:27:44.615Z,12.77
2019-02-24T08:30:13.901Z,11.70
2019-02-24T08:32:42.461Z,11.90
2019-02-24T08:35:11.096Z,12.23
2019-02-24T08:37:39.905Z,12.47
2019-02-24T08:40:12.286Z,12.17
2019-02-24T08:42:40.852Z,20.00
2019-02-24T08:45:12.725Z,18.00
2019-02-24T08:47:41.294Z,22.67
2019-02-24T08:50:11.211Z,21.07
2019-02-24T08:52:39.850Z,19.40
2019-02-24T08:55:08.863Z,14.10
2019-02-24T08:57:37.425Z,12.40
2019-02-24T09:00:14.865Z,10.73
2019-02-24T09:02:43.795Z,10.83
2019-02-24T09:05:12.405Z,9.70
2019-02-24T09:07:40.977Z,10.00
2019-02-24T09:10:09.977Z,9.20
2019-02-24T09:12:38.601Z,9.73
2019-02-24T09:15:12.112Z,8.70
2019-02-24T09:17:42.228Z,9.47
2019-02-24T09:20:12.554Z,9.53
2019-02-24T09:22:41.173Z,10.80
2019-02-24T09:25:09.867Z,9.30
2019-02-24T09:27:38.497Z,10.60
2019-02-24T09:30:12.308Z,14.60
2019-02-24T09:32:40.871Z,10.20
2019-02-24T09:35:10.610Z,10.07
2019-02-24T09:37:39.232Z,10.03
2019-02-24T09:40:11.076Z,9.00
2019-02-24T09:42:39.645Z,9.07
2019-02-24T09:45:10.513Z,9.83
2019-02-24T09:47:46.332Z,9.77
2019-02-24T09:50:10.644Z,9.23
2019-02-24T09:52:39.199Z,10.20
2019-02-24T09:55:12.175Z,11.07
2019-02-24T09:57:40.746Z,9.90
2019-02-24T10:00:12.460Z,10.90
2019-02-24T10:02:41.534Z,57.97
2019-02-24T10:05:10.618Z,30.80
2019-02-24T10:07:40.961Z,9.10
2019-02-24T10:10:12.317Z,10.77
2019-02-24T10:12:40.933Z,9.97
2019-02-24T10:15:14.235Z,9.57
2019-02-24T10:17:42.871Z,9.90
2019-02-24T10:20:12.784Z,9.37
2019-02-24T10:22:41.348Z,10.30
2019-02-24T10:25:10.580Z,10.13
2019-02-24T10:27:39.424Z,10.23
2019-02-24T10:30:13.259Z,11.10
2019-02-24T10:32:41.930Z,10.83
2019-02-24T10:35:10.554Z,10.40
2019-02-24T10:37:39.591Z,10.67
2019-02-24T10:40:12.444Z,11.30
2019-02-24T10:42:41.324Z,12.70
2019-02-24T10:45:12.696Z,11.20
2019-02-24T10:47:41.391Z,12.53
2019-02-24T10:50:16.873Z,13.60
2019-02-24T10:52:45.940Z,12.10
2019-02-24T10:55:14.677Z,14.40
2019-02-24T10:57:43.325Z,15.70
2019-02-24T11:00:14.793Z,13.00
2019-02-24T11:02:43.965Z,12.17
2019-02-24T11:05:12.586Z,12.70
2019-02-24T11:07:41.135Z,12.30
2019-02-24T11:10:13.408Z,12.57
2019-02-24T11:12:42.221Z,12.33
2019-02-24T11:15:12.483Z,14.67
2019-02-24T11:17:41.615Z,12.50
2019-02-24T11:20:12.511Z,13.10
2019-02-24T11:22:41.215Z,12.10
2019-02-24T11:25:11.351Z,11.50
2019-02-24T11:27:40.233Z,10.70
2019-02-24T11:30:13.775Z,8.80
2019-02-24T11:32:42.738Z,10.03
2019-02-24T11:35:14.234Z,13.00
2019-02-24T11:37:42.948Z,11.00
2019-02-24T11:40:18.630Z,11.53
2019-02-24T11:42:47.283Z,11.57
2019-02-24T11:45:15.991Z,9.33
2019-02-24T11:47:45.121Z,9.30
2019-02-24T11:50:13.831Z,8.30
2019-02-24T11:52:42.468Z,8.30
2019-02-24T11:55:11.503Z,9.60
2019-02-24T11:57:40.148Z,7.57
2019-02-24T12:00:15.091Z,6.70
2019-02-24T12:02:44.222Z,7.63
2019-02-24T12:05:13.575Z,6.07
2019-02-24T12:07:42.209Z,5.53
2019-02-24T12:10:12.006Z,5.17
2019-02-24T12:12:42.106Z,5.20
2019-02-24T12:15:14.866Z,4.97
2019-02-24T12:17:43.560Z,3.97
2019-02-24T12:20:13.642Z,5.00
2019-02-24T12:22:42.558Z,4.83
2019-02-24T12:25:12.027Z,5.00
2019-02-24T12:27:40.605Z,4.40
2019-02-24T12:30:14.752Z,3.77
2019-02-24T12:32:43.438Z,4.57
2019-02-24T12:35:12.077Z,4.90
2019-02-24T12:37:42.661Z,6.07
2019-02-24T12:40:15.236Z,5.10
2019-02-24T12:42:44.145Z,5.77
2019-02-24T12:45:12.844Z,5.60
2019-02-24T12:47:41.703Z,5.10
2019-02-24T12:50:12.678Z,5.60
2019-02-24T12:52:41.549Z,5.67
2019-02-24T12:55:11.213Z,5.13
2019-02-24T12:57:40.707Z,5.27
2019-02-24T13:00:24.796Z,4.90
2019-02-24T13:02:53.506Z,4.43
2019-02-24T13:05:22.606Z,4.67
2019-02-24T13:07:51.165Z,4.70
2019-02-24T13:10:20.569Z,5.47
2019-02-24T13:12:49.120Z,4.60
2019-02-24T13:15:17.994Z,4.73
2019-02-24T13:17:46.573Z,5.30
2019-02-24T13:20:15.286Z,4.50
2019-02-24T13:22:44.015Z,4.27
2019-02-24T13:25:13.874Z,4.13
2019-02-24T13:27:42.603Z,4.93
2019-02-24T13:30:13.757Z,5.23
2019-02-24T13:32:42.313Z,4.50
2019-02-24T13:35:11.123Z,4.87
2019-02-24T13:37:39.997Z,4.80
2019-02-24T13:40:14.102Z,5.00
2019-02-24T13:42:43.144Z,5.13
2019-02-24T13:45:22.327Z,4.70
2019-02-24T13:47:51.227Z,4.23
2019-02-24T13:50:19.849Z,4.20
2019-02-24T13:52:48.814Z,5.93
2019-02-24T13:55:17.358Z,5.50
2019-02-24T13:57:45.983Z,5.40
2019-02-24T14:00:21.252Z,4.80
2019-02-24T14:02:50.607Z,5.73
2019-02-24T14:05:20.535Z,5.60
2019-02-24T14:07:49.197Z,5.40
2019-02-24T14:10:17.768Z,5.30
2019-02-24T14:12:46.681Z,3.63
2019-02-24T14:15:16.175Z,4.90
2019-02-24T14:17:44.920Z,4.40
2019-02-24T14:20:17.626Z,5.00
2019-02-24T14:22:46.555Z,4.43
2019-02-24T14:25:16.252Z,4.87
2019-02-24T14:27:45.014Z,4.67
2019-02-24T14:30:15.754Z,4.67
2019-02-24T14:32:44.664Z,5.00
2019-02-24T14:35:16.717Z,4.30
2019-02-24T14:37:45.267Z,4.17
2019-02-24T14:40:14.549Z,4.30
2019-02-24T14:42:43.185Z,7.30
2019-02-24T14:45:17.232Z,8.53
2019-02-24T14:47:45.850Z,5.07
2019-02-24T14:50:14.794Z,17.20
2019-02-24T14:52:43.429Z,7.53
2019-02-24T14:55:13.093Z,5.30
2019-02-24T14:57:41.848Z,7.33
2019-02-24T15:00:13.318Z,7.33
2019-02-24T15:02:42.940Z,8.13
2019-02-24T15:05:13.864Z,8.37
2019-02-24T15:07:42.503Z,6.40
2019-02-24T15:10:14.095Z,6.27
2019-02-24T15:12:42.662Z,5.40
2019-02-24T15:15:13.858Z,4.73
2019-02-24T15:17:42.606Z,4.80
2019-02-24T15:20:16.804Z,5.10
2019-02-24T15:22:45.722Z,4.07
2019-02-24T15:25:16.898Z,5.07
2019-02-24T15:27:45.967Z,4.37
2019-02-24T15:30:20.234Z,4.73
2019-02-24T15:32:51.732Z,4.90
2019-02-24T15:35:19.154Z,5.10
2019-02-24T15:37:48.299Z,4.67
2019-02-24T15:40:17.002Z,4.90
2019-02-24T15:42:45.616Z,4.37
2019-02-24T15:45:15.062Z,3.77
2019-02-24T15:47:43.844Z,5.33
2019-02-24T15:50:14.025Z,4.70
2019-02-24T15:52:42.592Z,3.77
2019-02-24T15:55:14.007Z,4.73
2019-02-24T15:57:42.695Z,5.70
2019-02-24T16:00:17.005Z,4.17
2019-02-24T16:02:46.387Z,4.40
2019-02-24T16:05:15.563Z,6.57
2019-02-24T16:07:44.183Z,5.10
2019-02-24T16:10:15.949Z,4.77
2019-02-24T16:12:44.586Z,7.63
2019-02-24T16:15:15.484Z,5.10
2019-02-24T16:17:44.049Z,5.40
2019-02-24T16:20:15.546Z,5.80
2019-02-24T16:22:44.270Z,5.87
2019-02-24T16:25:12.833Z,4.63
2019-02-24T16:27:41.600Z,4.80
2019-02-24T16:30:13.209Z,6.30
2019-02-24T16:32:41.864Z,8.50
2019-02-24T16:35:16.101Z,7.87
2019-02-24T16:37:44.747Z,8.60
2019-02-24T16:40:29.054Z,10.20
2019-02-24T16:42:58.541Z,7.50
2019-02-24T16:45:27.157Z,5.33
2019-02-24T16:47:55.867Z,5.20
2019-02-24T16:50:25.040Z,8.43
2019-02-24T16:52:53.675Z,8.63
2019-02-24T16:55:22.512Z,8.80
2019-02-24T16:57:51.073Z,7.57
2019-02-24T17:00:21.622Z,8.60
2019-02-24T17:02:51.429Z,10.00
2019-02-24T17:05:20.619Z,9.50
2019-02-24T17:07:49.409Z,11.27
2019-02-24T17:10:26.607Z,11.20
2019-02-24T17:12:55.161Z,11.40
2019-02-24T17:15:23.979Z,11.40
2019-02-24T17:17:52.535Z,13.07
2019-02-24T17:20:23.340Z,12.37
2019-02-24T17:22:52.490Z,11.93
2019-02-24T17:25:22.246Z,13.77
2019-02-24T17:27:50.795Z,9.93
2019-02-24T17:30:20.274Z,10.33
2019-02-24T17:32:48.897Z,11.10
2019-02-24T17:35:17.604Z,10.63
2019-02-24T17:37:46.183Z,44.93
2019-02-24T17:40:20.654Z,22.70
2019-02-24T17:42:49.285Z,13.67
2019-02-24T17:45:18.330Z,14.33
2019-02-24T17:47:46.967Z,13.00
2019-02-24T17:50:17.009Z,15.63
2019-02-24T17:52:45.606Z,14.40
2019-02-24T17:55:15.680Z,10.83
2019-02-24T17:57:44.691Z,8.40
2019-02-24T18:00:32.479Z,11.63
2019-02-24T18:03:01.766Z,18.27
2019-02-24T18:05:30.399Z,19.63
2019-02-24T18:07:59.347Z,20.07
2019-02-24T18:10:28.205Z,16.20
2019-02-24T18:12:56.764Z,15.10
2019-02-24T18:15:25.349Z,18.27
2019-02-24T18:17:54.092Z,11.53
2019-02-24T18:20:23.026Z,15.37
2019-02-24T18:22:51.944Z,12.47
2019-02-24T18:25:20.443Z,11.57
2019-02-24T18:27:49.442Z,12.53
2019-02-24T18:30:25.449Z,11.40
2019-02-24T18:32:54.159Z,11.10
2019-02-24T18:35:22.741Z,10.93
2019-02-24T18:37:51.491Z,9.87
2019-02-24T18:40:20.082Z,9.10
2019-02-24T18:42:48.952Z,9.77
2019-02-24T18:45:18.033Z,8.80
2019-02-24T18:47:46.590Z,10.37
2019-02-24T18:50:16.884Z,9.50
2019-02-24T18:52:45.396Z,9.90
2019-02-24T18:55:14.623Z,10.63
2019-02-24T18:57:43.529Z,10.70
2019-02-24T19:00:19.424Z,10.70
2019-02-24T19:02:48.488Z,10.70
2019-02-24T19:05:17.063Z,10.30
2019-02-24T19:07:46.035Z,12.10
2019-02-24T19:10:17.237Z,10.53
2019-02-24T19:12:45.904Z,12.20
2019-02-24T19:15:16.979Z,13.40
2019-02-24T19:17:45.625Z,13.20
2019-02-24T19:20:17.434Z,17.90
2019-02-24T19:22:46.538Z,18.03
2019-02-24T19:25:15.231Z,16.13
2019-02-24T19:27:44.119Z,16.67
2019-02-24T19:30:20.599Z,14.60
2019-02-24T19:32:49.710Z,10.60
2019-02-24T19:35:20.838Z,15.87
2019-02-24T19:37:49.454Z,11.37
2019-02-24T19:40:24.223Z,13.30
2019-02-24T19:42:52.822Z,10.17
2019-02-24T19:45:27.040Z,12.03
2019-02-24T19:47:55.601Z,13.60
2019-02-24T19:50:24.642Z,14.30
2019-02-24T19:52:53.222Z,16.63
2019-02-24T19:55:21.861Z,17.83
2019-02-24T19:57:50.680Z,14.27
2019-02-24T20:00:21.403Z,13.80
2019-02-24T20:02:50.908Z,11.43
2019-02-24T20:05:20.592Z,13.50
2019-02-24T20:07:49.818Z,11.73
2019-02-24T20:10:25.582Z,14.63
2019-02-24T20:12:54.347Z,12.83
2019-02-24T20:15:22.922Z,13.80
2019-02-24T20:17:53.580Z,13.07
2019-02-24T20:20:22.315Z,13.17
2019-02-24T20:22:52.478Z,12.33
2019-02-24T20:25:23.290Z,12.53
2019-02-24T20:27:52.333Z,13.57
2019-02-24T20:30:31.597Z,13.70
2019-02-24T20:33:00.606Z,13.00
2019-02-24T20:35:29.188Z,14.03
2019-02-24T20:37:58.119Z,13.07
2019-02-24T20:40:26.817Z,11.87
2019-02-24T20:42:55.761Z,15.20
2019-02-24T20:45:25.086Z,14.60
2019-02-24T20:47:54.767Z,13.17
2019-02-24T20:50:28.546Z,12.87
2019-02-24T20:52:57.521Z,13.10
2019-02-24T20:55:26.426Z,13.20
2019-02-24T20:57:55.211Z,13.30
2019-02-24T21:00:26.932Z,12.10
2019-02-24T21:02:55.842Z,12.47
2019-02-24T21:05:24.423Z,13.00
2019-02-24T21:07:53.958Z,13.30
2019-02-24T21:10:22.526Z,13.40
2019-02-24T21:12:51.394Z,14.30
2019-02-24T21:15:20.026Z,16.23
2019-02-24T21:17:48.657Z,15.33
2019-02-24T21:20:23.155Z,14.33
2019-02-24T21:22:51.882Z,17.07
2019-02-24T21:25:20.442Z,16.30
2019-02-24T21:27:49.638Z,24.80
2019-02-24T21:30:19.348Z,22.33
2019-02-24T21:32:48.244Z,24.50
2019-02-24T21:35:17.469Z,27.03
2019-02-24T21:37:46.918Z,20.13
2019-02-24T21:40:17.817Z,17.13
2019-02-24T21:42:46.596Z,15.93
2019-02-24T21:45:28.879Z,15.30
2019-02-24T21:47:57.776Z,15.73
2019-02-24T21:50:26.348Z,18.20
2019-02-24T21:52:54.991Z,20.77
2019-02-24T21:55:23.560Z,19.67
2019-02-24T21:57:52.614Z,17.90
2019-02-24T22:00:23.583Z,16.60
2019-02-24T22:02:52.762Z,17.30
2019-02-24T22:05:21.318Z,16.83
2019-02-24T22:07:50.085Z,16.00
2019-02-24T22:10:18.764Z,15.00
2019-02-24T22:12:47.335Z,14.00
2019-02-24T22:15:21.102Z,15.87
2019-02-24T22:17:49.709Z,16.23
2019-02-24T22:20:18.663Z,15.63
2019-02-24T22:22:47.228Z,15.63
2019-02-24T22:25:17.065Z,17.23
2019-02-24T22:27:45.793Z,16.00
2019-02-24T22:30:19.458Z,15.13
2019-02-24T22:32:48.019Z,16.00
2019-02-24T22:35:16.744Z,17.07
2019-02-24T22:37:45.527Z,16.10
2019-02-24T22:40:16.806Z,15.30
2019-02-24T22:42:46.361Z,16.07
2019-02-24T22:45:18.071Z,19.03
2019-02-24T22:47:46.705Z,17.60
2019-02-24T22:50:16.287Z,16.63
2019-02-24T22:52:46.182Z,17.57
2019-02-24T22:55:19.521Z,14.87
2019-02-24T22:57:48.245Z,15.57
2019-02-24T23:00:45.439Z,16.87
2019-02-24T23:03:14.082Z,16.90
2019-02-24T23:05:42.719Z,15.77
2019-02-24T23:08:11.424Z,14.97
2019-02-24T23:10:39.978Z,15.43
2019-02-24T23:13:08.795Z,14.40
2019-02-24T23:15:37.422Z,15.03
2019-02-24T23:18:08.294Z,14.90
2019-02-24T23:20:36.634Z,14.70
2019-02-24T23:23:05.590Z,14.47
2019-02-24T23:25:35.777Z,15.23
2019-02-24T23:28:04.688Z,23.47
2019-02-24T23:30:33.399Z,32.47
2019-02-24T23:33:01.976Z,15.77
2019-02-24T23:35:31.051Z,16.60
2019-02-24T23:37:59.610Z,13.80
2019-02-24T23:40:28.485Z,14.80
2019-02-24T23:42:57.126Z,14.30
2019-02-24T23:45:25.685Z,12.60
2019-02-24T23:47:54.828Z,12.13
2019-02-24T23:50:23.588Z,13.33
2019-02-24T23:52:52.276Z,13.80
2019-02-24T23:55:21.166Z,13.80
2019-02-24T23:57:49.735Z,12.00
